createdAt,value
2017-02-24T00:00:58.067Z,0
2017-02-24T00:01:58.015Z,0
2017-02-24T00:02:58.023Z,0
2017-02-24T00:03:57.977Z,0
2017-02-24T00:04:57.970Z,0
2017-02-24T00:05:57.941Z,0
2017-02-24T00:06:57.920Z,0
2017-02-24T00:08:11.325Z,0
2017-02-24T00:08:57.892Z,0
2017-02-24T00:09:57.856Z,0
2017-02-24T00:10:57.858Z,0
2017-02-24T00:11:57.857Z,0
2017-02-24T00:12:57.810Z,0
2017-02-24T00:13:58.008Z,0
2017-02-24T00:14:57.790Z,0
2017-02-24T00:15:57.785Z,0
2017-02-24T00:16:57.744Z,0
2017-02-24T00:17:57.743Z,0
2017-02-24T00:18:57.958Z,0
2017-02-24T00:19:57.694Z,0
2017-02-24T00:20:57.707Z,0
2017-02-24T00:21:57.659Z,0
2017-02-24T00:22:57.661Z,0
2017-02-24T00:23:57.620Z,0
2017-02-24T00:24:57.602Z,0
2017-02-24T00:25:57.582Z,0
2017-02-24T00:26:57.557Z,0
2017-02-24T00:27:57.509Z,0
2017-02-24T00:28:57.524Z,0
2017-02-24T00:29:57.483Z,0
2017-02-24T00:30:57.465Z,0
2017-02-24T00:31:57.481Z,0
2017-02-24T00:32:57.462Z,0
2017-02-24T00:33:57.411Z,0
2017-02-24T00:34:57.404Z,0
2017-02-24T00:35:57.377Z,0
2017-02-24T00:36:57.395Z,0
2017-02-24T00:37:57.350Z,0
2017-02-24T00:38:57.327Z,0
2017-02-24T00:39:57.318Z,0
2017-02-24T00:40:57.279Z,0
2017-02-24T00:41:57.265Z,0
2017-02-24T00:42:57.235Z,0
2017-02-24T00:43:57.206Z,0
2017-02-24T00:44:57.213Z,0
2017-02-24T00:45:57.202Z,0
2017-02-24T00:46:57.175Z,0
2017-02-24T00:47:57.351Z,0
2017-02-24T00:48:57.168Z,0
2017-02-24T00:49:57.134Z,0
2017-02-24T00:50:57.101Z,0
2017-02-24T00:51:57.103Z,0
2017-02-24T00:52:57.062Z,0
2017-02-24T00:53:57.066Z,0
2017-02-24T00:54:57.043Z,0
2017-02-24T00:55:57.005Z,0
2017-02-24T00:56:56.975Z,0
2017-02-24T00:57:56.979Z,0
2017-02-24T00:58:56.934Z,0
2017-02-24T00:59:56.939Z,0
2017-02-24T01:00:56.922Z,0
2017-02-24T01:01:56.881Z,0
2017-02-24T01:02:56.867Z,0
2017-02-24T01:03:56.852Z,0
2017-02-24T01:04:56.839Z,0
2017-02-24T01:05:56.809Z,0
2017-02-24T01:06:56.792Z,0
2017-02-24T01:07:56.773Z,0
2017-02-24T01:08:56.770Z,0
2017-02-24T01:09:56.741Z,0
2017-02-24T01:10:56.717Z,0
2017-02-24T01:11:56.716Z,0
2017-02-24T01:12:56.685Z,0
2017-02-24T01:13:56.667Z,0
2017-02-24T01:14:56.634Z,0
2017-02-24T01:16:10.279Z,0
2017-02-24T01:16:56.665Z,0
2017-02-24T01:17:56.609Z,0
2017-02-24T01:18:56.541Z,0
2017-02-24T01:19:56.537Z,0
2017-02-24T01:20:56.743Z,0
2017-02-24T01:22:10.139Z,0
2017-02-24T01:22:56.516Z,0
2017-02-24T01:23:56.488Z,0
2017-02-24T01:24:56.458Z,0
2017-02-24T01:25:56.444Z,0
2017-02-24T01:26:56.405Z,0
2017-02-24T01:27:56.419Z,0
2017-02-24T01:28:56.368Z,0
2017-02-24T01:29:56.320Z,0
2017-02-24T01:30:56.345Z,0
2017-02-24T01:31:56.306Z,0
2017-02-24T01:32:56.287Z,0
2017-02-24T01:33:56.277Z,0
2017-02-24T01:34:56.249Z,0
2017-02-24T01:35:56.218Z,0
2017-02-24T01:36:56.201Z,0
2017-02-24T01:37:56.182Z,0
2017-02-24T01:38:56.172Z,0
2017-02-24T01:39:56.164Z,0
2017-02-24T01:40:56.157Z,0
2017-02-24T01:41:56.107Z,0
2017-02-24T01:42:56.105Z,0
2017-02-24T01:43:56.079Z,0
2017-02-24T01:44:56.053Z,0
2017-02-24T01:45:56.047Z,0
2017-02-24T01:46:56.031Z,0
2017-02-24T01:47:55.997Z,0
2017-02-24T01:48:55.987Z,0
2017-02-24T01:49:55.995Z,0
2017-02-24T01:50:55.959Z,0
2017-02-24T01:51:55.948Z,0
2017-02-24T01:52:55.906Z,0
2017-02-24T01:53:55.897Z,0
2017-02-24T01:54:56.063Z,0
2017-02-24T01:55:55.834Z,0
2017-02-24T01:56:55.868Z,0
2017-02-24T01:57:55.815Z,0
2017-02-24T01:58:55.787Z,0
2017-02-24T01:59:55.753Z,0
2017-02-24T02:00:55.751Z,0
2017-02-24T02:01:55.741Z,0
2017-02-24T02:02:55.717Z,0
2017-02-24T02:03:55.676Z,0
2017-02-24T02:04:55.639Z,0
2017-02-24T02:05:55.675Z,0
2017-02-24T02:06:55.652Z,0
2017-02-24T02:07:55.619Z,0
2017-02-24T02:08:55.651Z,0
2017-02-24T02:09:55.564Z,0
2017-02-24T02:10:55.551Z,0
2017-02-24T02:11:55.535Z,0
2017-02-24T02:12:55.518Z,0
2017-02-24T02:13:55.493Z,0
2017-02-24T02:14:55.483Z,0
2017-02-24T02:15:55.436Z,0
2017-02-24T02:16:55.446Z,0
2017-02-24T02:17:55.405Z,0
2017-02-24T02:18:55.390Z,0
2017-02-24T02:19:55.359Z,0
2017-02-24T02:20:55.338Z,0
2017-02-24T02:21:54.944Z,0
2017-02-24T02:22:55.298Z,0
2017-02-24T02:23:55.269Z,0
2017-02-24T02:24:55.253Z,0
2017-02-24T02:25:55.267Z,0
2017-02-24T02:26:55.203Z,0
2017-02-24T02:27:55.194Z,0
2017-02-24T02:28:55.203Z,0
2017-02-24T02:29:55.130Z,0
2017-02-24T02:30:55.136Z,0
2017-02-24T02:31:55.121Z,0
2017-02-24T02:32:55.095Z,0
2017-02-24T02:33:55.075Z,0
2017-02-24T02:34:55.054Z,0
2017-02-24T02:35:55.041Z,0
2017-02-24T02:36:55.026Z,0
2017-02-24T02:37:54.997Z,0
2017-02-24T02:38:54.631Z,0
2017-02-24T02:39:54.939Z,0
2017-02-24T02:40:54.939Z,0
2017-02-24T02:41:54.919Z,0
2017-02-24T02:42:54.901Z,0
2017-02-24T02:43:54.846Z,0
2017-02-24T02:44:54.845Z,0
2017-02-24T02:45:54.870Z,0
2017-02-24T02:46:54.413Z,0
2017-02-24T02:47:54.765Z,0
2017-02-24T02:48:54.761Z,0
2017-02-24T02:49:54.349Z,0
2017-02-24T02:50:54.746Z,0
2017-02-24T02:51:54.712Z,0
2017-02-24T02:52:54.719Z,0
2017-02-24T02:53:54.671Z,0
2017-02-24T02:54:54.637Z,0
2017-02-24T02:55:54.628Z,0
2017-02-24T02:56:54.632Z,0
2017-02-24T02:57:54.601Z,0
2017-02-24T02:58:54.567Z,0
2017-02-24T02:59:54.522Z,0
2017-02-24T03:00:54.537Z,0
2017-02-24T03:01:54.511Z,0
2017-02-24T03:02:54.516Z,0
2017-02-24T03:03:54.470Z,0
2017-02-24T03:04:54.435Z,0
2017-02-24T03:05:54.407Z,0
2017-02-24T03:06:54.402Z,0
2017-02-24T03:07:54.378Z,0
2017-02-24T03:08:54.371Z,0
2017-02-24T03:09:54.373Z,0
2017-02-24T03:10:54.314Z,0
2017-02-24T03:11:54.301Z,0
2017-02-24T03:12:54.269Z,0
2017-02-24T03:13:54.267Z,0
2017-02-24T03:14:54.227Z,0
2017-02-24T03:15:54.202Z,0
2017-02-24T03:16:54.184Z,0
2017-02-24T03:17:54.170Z,0
2017-02-24T03:18:54.142Z,0
2017-02-24T03:19:54.122Z,0
2017-02-24T03:20:54.114Z,0
2017-02-24T03:21:54.130Z,0
2017-02-24T03:22:54.049Z,0
2017-02-24T03:23:54.043Z,0
2017-02-24T03:24:53.624Z,0
2017-02-24T03:25:53.998Z,0
2017-02-24T03:26:53.983Z,0
2017-02-24T03:27:53.968Z,0
2017-02-24T03:28:53.937Z,0
2017-02-24T03:29:53.925Z,0
2017-02-24T03:30:53.880Z,0
2017-02-24T03:31:53.890Z,0
2017-02-24T03:32:53.859Z,0
2017-02-24T03:33:53.836Z,0
2017-02-24T03:34:53.813Z,0
2017-02-24T03:35:53.832Z,0
2017-02-24T03:36:53.775Z,0
2017-02-24T03:37:53.811Z,0
2017-02-24T03:38:53.724Z,0
2017-02-24T03:39:53.337Z,0
2017-02-24T03:40:53.692Z,0
2017-02-24T03:41:53.287Z,0
2017-02-24T03:42:53.653Z,0
2017-02-24T03:43:53.638Z,0
2017-02-24T03:44:53.615Z,0
2017-02-24T03:45:53.573Z,0
2017-02-24T03:46:53.569Z,0
2017-02-24T03:47:53.562Z,0
2017-02-24T03:48:53.133Z,0
2017-02-24T03:49:52.771Z,0
2017-02-24T03:50:53.490Z,0
2017-02-24T03:51:53.099Z,0
2017-02-24T03:52:53.446Z,0
2017-02-24T03:53:53.436Z,0
2017-02-24T03:54:53.404Z,0
2017-02-24T03:55:52.988Z,0
2017-02-24T03:56:53.371Z,0
2017-02-24T03:57:53.357Z,0
2017-02-24T03:58:53.338Z,0
2017-02-24T03:59:53.300Z,0
2017-02-24T04:00:53.285Z,0
2017-02-24T04:01:53.280Z,0
2017-02-24T04:02:53.233Z,0
2017-02-24T04:03:53.228Z,0
2017-02-24T04:04:53.230Z,0
2017-02-24T04:05:53.180Z,0
2017-02-24T04:06:53.163Z,0
2017-02-24T04:07:53.124Z,0
2017-02-24T04:08:53.117Z,0
2017-02-24T04:09:53.085Z,0
2017-02-24T04:10:53.087Z,0
2017-02-24T04:11:52.675Z,0
2017-02-24T04:12:53.030Z,0
2017-02-24T04:13:53.007Z,0
2017-02-24T04:14:53.025Z,0
2017-02-24T04:15:52.981Z,0
2017-02-24T04:16:52.981Z,0
2017-02-24T04:17:52.920Z,0
2017-02-24T04:18:52.514Z,0
2017-02-24T04:19:52.904Z,0
2017-02-24T04:20:52.483Z,0
2017-02-24T04:21:52.846Z,0
2017-02-24T04:22:52.839Z,0
2017-02-24T04:23:52.015Z,0
2017-02-24T04:24:51.995Z,0
2017-02-24T04:25:52.363Z,0
2017-02-24T04:26:52.350Z,0
2017-02-24T04:27:52.695Z,0
2017-02-24T04:28:52.704Z,0
2017-02-24T04:29:52.274Z,0
2017-02-24T04:30:52.648Z,0
2017-02-24T04:31:52.623Z,0
2017-02-24T04:32:52.619Z,0
2017-02-24T04:33:52.199Z,0
2017-02-24T04:34:52.546Z,0
2017-02-24T04:35:52.520Z,0
2017-02-24T04:36:52.125Z,0
2017-02-24T04:37:52.487Z,0
2017-02-24T04:38:52.500Z,0
2017-02-24T04:39:52.446Z,0
2017-02-24T04:40:52.424Z,0
2017-02-24T04:41:52.405Z,0
2017-02-24T04:42:52.379Z,0
2017-02-24T04:43:51.966Z,0
2017-02-24T04:44:52.366Z,0
2017-02-24T04:45:52.323Z,0
2017-02-24T04:46:52.274Z,0
2017-02-24T04:47:51.894Z,0
2017-02-24T04:48:52.263Z,0
2017-02-24T04:49:52.215Z,0
2017-02-24T04:50:52.181Z,0
2017-02-24T04:51:52.166Z,0
2017-02-24T04:52:52.143Z,0
2017-02-24T04:53:52.123Z,0
2017-02-24T04:54:52.129Z,0
2017-02-24T04:55:52.099Z,0
2017-02-24T04:56:52.049Z,0
2017-02-24T04:57:52.026Z,0
2017-02-24T04:58:52.032Z,0
2017-02-24T04:59:51.992Z,0
2017-02-24T05:00:51.992Z,0
2017-02-24T05:01:51.962Z,0
2017-02-24T05:02:51.955Z,0
2017-02-24T05:03:51.915Z,0
2017-02-24T05:04:51.859Z,0
2017-02-24T05:05:51.888Z,0
2017-02-24T05:06:51.840Z,0
2017-02-24T05:07:51.815Z,0
2017-02-24T05:08:51.790Z,0
2017-02-24T05:09:51.396Z,0
2017-02-24T05:10:51.737Z,0
2017-02-24T05:11:51.717Z,0
2017-02-24T05:12:51.693Z,0
2017-02-24T05:13:51.711Z,0
2017-02-24T05:14:51.645Z,0
2017-02-24T05:15:51.633Z,0
2017-02-24T05:16:51.646Z,0
2017-02-24T05:17:51.585Z,0
2017-02-24T05:18:51.561Z,0
2017-02-24T05:19:51.525Z,0
2017-02-24T05:20:51.536Z,0
2017-02-24T05:21:51.489Z,0
2017-02-24T05:22:51.090Z,0
2017-02-24T05:23:51.459Z,0
2017-02-24T05:24:51.449Z,0
2017-02-24T05:25:51.405Z,0
2017-02-24T05:26:51.392Z,0
2017-02-24T05:27:51.372Z,0
2017-02-24T05:28:51.337Z,0
2017-02-24T05:29:51.331Z,0
2017-02-24T05:30:51.304Z,0
2017-02-24T05:31:51.269Z,0
2017-02-24T05:32:51.247Z,0
2017-02-24T05:33:51.232Z,0
2017-02-24T05:34:50.823Z,0
2017-02-24T05:35:51.190Z,0
2017-02-24T05:36:51.179Z,0
2017-02-24T05:37:51.118Z,0
2017-02-24T05:38:51.081Z,4
2017-02-24T05:39:51.066Z,4
2017-02-24T05:40:50.675Z,4
2017-02-24T05:41:51.019Z,4
2017-02-24T05:42:51.000Z,4
2017-02-24T05:43:51.001Z,8
2017-02-24T05:44:50.586Z,8
2017-02-24T05:45:50.549Z,8
2017-02-24T05:46:50.528Z,12
2017-02-24T05:47:50.531Z,16
2017-02-24T05:48:50.892Z,16
2017-02-24T05:49:50.866Z,20
2017-02-24T05:50:50.479Z,24
2017-02-24T05:51:50.799Z,28
2017-02-24T05:52:50.770Z,32
2017-02-24T05:53:50.382Z,40
2017-02-24T05:54:50.366Z,48
2017-02-24T05:55:50.730Z,60
2017-02-24T05:56:50.680Z,64
2017-02-24T05:57:50.661Z,76
2017-02-24T05:58:50.649Z,84
2017-02-24T05:59:50.610Z,96
2017-02-24T06:00:50.597Z,112
2017-02-24T06:01:50.572Z,120
2017-02-24T06:02:50.556Z,132
2017-02-24T06:03:50.530Z,148
2017-02-24T06:04:50.487Z,160
2017-02-24T06:05:50.490Z,176
2017-02-24T06:06:50.460Z,192
2017-02-24T06:07:50.425Z,208
2017-02-24T06:08:50.416Z,220
2017-02-24T06:09:50.365Z,236
2017-02-24T06:10:50.370Z,268
2017-02-24T06:11:50.348Z,272
2017-02-24T06:12:50.301Z,300
2017-02-24T06:13:50.318Z,320
2017-02-24T06:14:50.236Z,368
2017-02-24T06:15:50.248Z,400
2017-02-24T06:16:50.205Z,440
2017-02-24T06:17:50.166Z,476
2017-02-24T06:18:50.166Z,504
2017-02-24T06:19:50.155Z,516
2017-02-24T06:20:50.103Z,556
2017-02-24T06:21:50.082Z,600
2017-02-24T06:22:50.072Z,664
2017-02-24T06:23:50.049Z,736
2017-02-24T06:24:49.659Z,836
2017-02-24T06:25:50.020Z,904
2017-02-24T06:26:49.959Z,984
2017-02-24T06:27:49.950Z,1012
2017-02-24T06:28:49.926Z,1040
2017-02-24T06:29:49.508Z,1088
2017-02-24T06:30:49.850Z,1160
2017-02-24T06:31:49.822Z,1220
2017-02-24T06:32:49.809Z,1264
2017-02-24T06:33:49.789Z,1364
2017-02-24T06:34:49.360Z,1428
2017-02-24T06:35:49.748Z,1468
2017-02-24T06:36:49.708Z,1480
2017-02-24T06:37:49.697Z,1512
2017-02-24T06:38:49.715Z,1580
2017-02-24T06:39:49.651Z,1688
2017-02-24T06:40:49.616Z,1848
2017-02-24T06:41:49.603Z,2068
2017-02-24T06:42:49.566Z,2264
2017-02-24T06:43:49.571Z,2456
2017-02-24T06:44:49.528Z,2748
2017-02-24T06:45:49.518Z,2996
2017-02-24T06:46:49.503Z,3188
2017-02-24T06:47:49.471Z,3396
2017-02-24T06:48:49.459Z,3500
2017-02-24T06:49:49.415Z,3652
2017-02-24T06:50:49.363Z,3880
2017-02-24T06:51:49.351Z,4096
2017-02-24T06:52:49.335Z,4252
2017-02-24T06:53:49.280Z,4272
2017-02-24T06:54:49.274Z,4236
2017-02-24T06:55:49.267Z,4328
2017-02-24T06:56:49.229Z,4448
2017-02-24T06:57:49.190Z,4588
2017-02-24T06:58:49.183Z,4732
2017-02-24T06:59:49.168Z,4904
2017-02-24T07:00:49.135Z,5056
2017-02-24T07:01:49.128Z,5124
2017-02-24T07:02:48.718Z,5016
2017-02-24T07:03:49.063Z,5076
2017-02-24T07:04:49.049Z,5168
2017-02-24T07:05:49.005Z,5388
2017-02-24T07:06:49.020Z,5552
2017-02-24T07:07:48.983Z,5584
2017-02-24T07:08:48.926Z,5560
2017-02-24T07:09:48.905Z,5564
2017-02-24T07:10:48.908Z,5856
2017-02-24T07:11:48.875Z,6040
2017-02-24T07:12:48.853Z,6180
2017-02-24T07:13:48.820Z,6492
2017-02-24T07:14:48.811Z,6748
2017-02-24T07:15:48.771Z,6940
2017-02-24T07:16:48.744Z,7308
2017-02-24T07:17:48.717Z,7428
2017-02-24T07:18:48.706Z,7192
2017-02-24T07:19:48.660Z,6832
2017-02-24T07:20:48.690Z,6864
2017-02-24T07:21:48.646Z,7172
2017-02-24T07:22:48.627Z,7380
2017-02-24T07:23:48.559Z,7916
2017-02-24T07:24:48.187Z,8540
2017-02-24T07:25:48.165Z,9048
2017-02-24T07:26:48.515Z,9368
2017-02-24T07:27:48.491Z,9308
2017-02-24T07:28:48.065Z,8784
2017-02-24T07:29:48.419Z,8540
2017-02-24T07:30:48.018Z,8468
2017-02-24T07:31:48.369Z,8384
2017-02-24T07:32:48.355Z,8864
2017-02-24T07:33:48.330Z,9684
2017-02-24T07:34:48.337Z,9848
2017-02-24T07:35:48.290Z,9436
2017-02-24T07:36:48.275Z,9964
2017-02-24T07:37:48.234Z,11472
2017-02-24T07:38:48.217Z,12024
2017-02-24T07:39:47.798Z,12556
2017-02-24T07:40:48.197Z,13208
2017-02-24T07:41:48.130Z,12792
2017-02-24T07:42:48.119Z,13968
2017-02-24T07:43:48.088Z,16120
2017-02-24T07:44:48.059Z,16396
2017-02-24T07:45:48.017Z,15452
2017-02-24T07:46:48.035Z,16868
2017-02-24T07:47:47.599Z,18592
2017-02-24T07:48:47.594Z,19904
2017-02-24T07:49:47.940Z,24320
2017-02-24T07:50:47.913Z,26400
2017-02-24T07:51:47.894Z,25312
2017-02-24T07:52:47.875Z,25824
2017-02-24T07:53:47.838Z,25856
2017-02-24T07:54:47.819Z,24640
2017-02-24T07:55:47.823Z,25472
2017-02-24T07:56:47.813Z,26496
2017-02-24T07:57:47.749Z,28032
2017-02-24T07:58:47.715Z,29536
2017-02-24T07:59:46.924Z,26976
2017-02-24T08:00:47.680Z,23616
2017-02-24T08:01:47.653Z,21088
2017-02-24T08:02:47.236Z,20096
2017-02-24T08:03:47.605Z,19040
2017-02-24T08:04:46.821Z,19296
2017-02-24T08:05:47.560Z,20512
2017-02-24T08:06:47.542Z,19680
2017-02-24T08:07:47.530Z,18464
2017-02-24T08:08:47.495Z,16628
2017-02-24T08:09:47.431Z,15936
2017-02-24T08:10:47.444Z,14960
2017-02-24T08:11:47.397Z,14800
2017-02-24T08:12:47.395Z,14936
2017-02-24T08:13:47.359Z,14948
2017-02-24T08:14:47.340Z,15460
2017-02-24T08:15:47.323Z,16692
2017-02-24T08:16:47.282Z,18176
2017-02-24T08:17:47.255Z,18848
2017-02-24T08:18:47.242Z,20096
2017-02-24T08:19:47.211Z,20192
2017-02-24T08:20:47.200Z,20768
2017-02-24T08:21:47.153Z,21824
2017-02-24T08:22:47.145Z,21568
2017-02-24T08:23:47.086Z,22176
2017-02-24T08:24:47.088Z,23168
2017-02-24T08:25:47.054Z,24000
2017-02-24T08:26:47.042Z,27328
2017-02-24T08:27:47.007Z,29632
2017-02-24T08:28:46.992Z,30240
2017-02-24T08:29:46.563Z,31680
2017-02-24T08:30:46.932Z,32960
2017-02-24T08:31:46.906Z,30848
2017-02-24T08:32:46.910Z,31552
2017-02-24T08:33:46.863Z,33216
2017-02-24T08:34:46.849Z,36512
2017-02-24T08:35:46.826Z,35968
2017-02-24T08:36:46.874Z,32000
2017-02-24T08:37:46.406Z,31328
2017-02-24T08:38:46.746Z,31968
2017-02-24T08:39:46.753Z,32608
2017-02-24T08:40:46.698Z,34272
2017-02-24T08:41:46.681Z,38816
2017-02-24T08:42:46.657Z,36992
2017-02-24T08:43:46.270Z,37408
2017-02-24T08:44:46.644Z,39264
2017-02-24T08:45:46.580Z,45824
2017-02-24T08:46:45.796Z,45472
2017-02-24T08:47:46.537Z,49024
2017-02-24T08:48:46.504Z,49280
2017-02-24T08:49:46.493Z,40128
2017-02-24T08:50:46.501Z,33728
2017-02-24T08:51:46.070Z,36224
2017-02-24T08:52:46.057Z,42080
2017-02-24T08:53:46.387Z,42624
2017-02-24T08:54:46.355Z,44224
2017-02-24T08:55:46.338Z,46432
2017-02-24T08:56:46.332Z,47008
2017-02-24T08:57:46.289Z,49632
2017-02-24T08:58:46.291Z,50784
2017-02-24T08:59:46.251Z,50816
2017-02-24T09:00:46.222Z,54080
2017-02-24T09:01:46.185Z,58752
2017-02-24T09:02:46.181Z,60288
2017-02-24T09:03:46.180Z,59264
2017-02-24T09:04:46.147Z,55072
2017-02-24T09:05:46.100Z,48352
2017-02-24T09:06:45.691Z,44096
2017-02-24T09:07:46.080Z,39808
2017-02-24T09:08:46.050Z,41952
2017-02-24T09:09:46.009Z,44896
2017-02-24T09:10:46.015Z,49888
2017-02-24T09:11:45.966Z,48096
2017-02-24T09:12:45.946Z,48768
2017-02-24T09:13:45.921Z,50048
2017-02-24T09:14:45.896Z,60416
2017-02-24T09:15:45.883Z,65088
2017-02-24T09:16:45.459Z,63488
2017-02-24T09:17:45.833Z,67296
2017-02-24T09:18:45.796Z,61184
2017-02-24T09:19:45.780Z,56768
2017-02-24T09:20:45.768Z,56960
2017-02-24T09:21:45.731Z,59840
2017-02-24T09:22:45.708Z,57696
2017-02-24T09:23:45.697Z,53568
2017-02-24T09:24:45.679Z,53216
2017-02-24T09:25:45.630Z,49248
2017-02-24T09:26:45.607Z,44096
2017-02-24T09:27:45.623Z,41248
2017-02-24T09:28:45.595Z,40864
2017-02-24T09:29:45.535Z,38848
2017-02-24T09:30:45.521Z,43232
2017-02-24T09:31:44.742Z,43040
2017-02-24T09:32:45.489Z,46432
2017-02-24T09:33:45.437Z,48096
2017-02-24T09:34:45.436Z,50848
2017-02-24T09:35:44.629Z,44864
2017-02-24T09:36:44.994Z,43744
2017-02-24T09:37:45.333Z,40128
2017-02-24T09:38:44.943Z,36384
2017-02-24T09:39:44.536Z,35424
2017-02-24T09:40:44.895Z,34240
2017-02-24T09:41:44.874Z,34656
2017-02-24T09:42:44.834Z,35200
2017-02-24T09:43:44.829Z,33952
2017-02-24T09:44:45.183Z,34912
2017-02-24T09:45:45.146Z,34496
2017-02-24T09:46:45.101Z,33984
2017-02-24T09:47:45.100Z,33856
2017-02-24T09:48:45.082Z,34112
2017-02-24T09:49:45.058Z,33952
2017-02-24T09:50:45.035Z,34432
2017-02-24T09:51:44.987Z,33984
2017-02-24T09:52:44.988Z,35456
2017-02-24T09:53:44.963Z,37600
2017-02-24T09:54:44.909Z,38688
2017-02-24T09:55:44.877Z,40192
2017-02-24T09:56:44.881Z,40864
2017-02-24T09:57:44.842Z,42144
2017-02-24T09:58:44.822Z,43136
2017-02-24T09:59:44.807Z,43712
2017-02-24T10:00:44.748Z,43936
2017-02-24T10:01:44.745Z,45088
2017-02-24T10:02:44.716Z,43840
2017-02-24T10:03:44.688Z,45088
2017-02-24T10:04:44.674Z,45536
2017-02-24T10:05:44.663Z,46080
2017-02-24T10:06:44.644Z,46912
2017-02-24T10:07:44.587Z,47840
2017-02-24T10:08:44.575Z,48960
2017-02-24T10:09:44.548Z,46784
2017-02-24T10:10:44.524Z,46368
2017-02-24T10:11:44.536Z,46880
2017-02-24T10:12:44.505Z,46656
2017-02-24T10:13:44.469Z,45216
2017-02-24T10:14:44.410Z,44928
2017-02-24T10:15:44.400Z,45376
2017-02-24T10:16:44.444Z,45472
2017-02-24T10:17:44.368Z,45792
2017-02-24T10:18:44.352Z,44480
2017-02-24T10:19:44.303Z,45312
2017-02-24T10:20:44.265Z,46848
2017-02-24T10:21:44.258Z,52384
2017-02-24T10:22:44.212Z,57632
2017-02-24T10:23:44.184Z,59104
2017-02-24T10:24:44.178Z,58144
2017-02-24T10:25:44.174Z,60288
2017-02-24T10:26:44.143Z,60096
2017-02-24T10:27:44.109Z,59648
2017-02-24T10:28:44.086Z,56512
2017-02-24T10:29:43.686Z,56768
2017-02-24T10:30:44.020Z,57920
2017-02-24T10:31:44.018Z,58080
2017-02-24T10:32:43.974Z,55136
2017-02-24T10:33:43.950Z,55360
2017-02-24T10:34:43.904Z,56160
2017-02-24T10:35:43.919Z,55328
2017-02-24T10:36:43.885Z,56000
2017-02-24T10:37:43.874Z,53216
2017-02-24T10:38:43.448Z,45376
2017-02-24T10:39:43.834Z,43872
2017-02-24T10:40:43.785Z,46112
2017-02-24T10:41:43.743Z,41824
2017-02-24T10:42:43.732Z,38400
2017-02-24T10:43:43.346Z,38240
2017-02-24T10:44:43.681Z,42848
2017-02-24T10:45:43.278Z,39552
2017-02-24T10:46:43.622Z,41344
2017-02-24T10:47:43.611Z,43296
2017-02-24T10:48:43.576Z,41920
2017-02-24T10:49:43.592Z,44864
2017-02-24T10:50:43.150Z,49600
2017-02-24T10:51:43.517Z,56832
2017-02-24T10:52:43.516Z,45920
2017-02-24T10:53:43.470Z,42272
2017-02-24T10:54:43.442Z,40640
2017-02-24T10:55:43.446Z,49472
2017-02-24T10:56:43.394Z,52448
2017-02-24T10:57:43.000Z,56928
2017-02-24T10:58:43.333Z,48832
2017-02-24T10:59:43.325Z,50752
2017-02-24T11:00:42.894Z,55648
2017-02-24T11:01:42.925Z,50720
2017-02-24T11:02:43.267Z,77088
2017-02-24T11:03:43.250Z,88928
2017-02-24T11:04:43.202Z,82752
2017-02-24T11:05:43.183Z,74656
2017-02-24T11:06:43.182Z,82240
2017-02-24T11:07:43.129Z,79840
2017-02-24T11:08:43.098Z,76096
2017-02-24T11:09:43.095Z,72864
2017-02-24T11:10:43.070Z,78048
2017-02-24T11:11:43.044Z,84320
2017-02-24T11:12:43.013Z,74080
2017-02-24T11:13:43.026Z,63360
2017-02-24T11:14:42.958Z,50848
2017-02-24T11:15:42.937Z,70208
2017-02-24T11:16:42.939Z,52640
2017-02-24T11:17:42.900Z,47584
2017-02-24T11:18:42.857Z,41856
2017-02-24T11:19:42.856Z,43968
2017-02-24T11:20:42.809Z,44768
2017-02-24T11:21:42.808Z,51424
2017-02-24T11:22:42.783Z,47488
2017-02-24T11:23:42.356Z,38464
2017-02-24T11:24:42.918Z,35904
2017-02-24T11:25:42.702Z,40000
2017-02-24T11:26:42.685Z,92640
2017-02-24T11:27:42.680Z,45632
2017-02-24T11:28:42.663Z,56192
2017-02-24T11:29:42.598Z,51136
2017-02-24T11:30:42.388Z,43520
2017-02-24T11:31:42.545Z,41504
2017-02-24T11:32:42.185Z,44544
2017-02-24T11:33:42.523Z,51968
2017-02-24T11:34:42.478Z,50112
2017-02-24T11:35:42.486Z,46368
2017-02-24T11:36:42.448Z,48576
2017-02-24T11:37:42.428Z,48704
2017-02-24T11:38:42.004Z,44896
2017-02-24T11:39:42.389Z,48704
2017-02-24T11:40:42.341Z,48832
2017-02-24T11:41:42.347Z,55936
2017-02-24T11:42:42.295Z,43648
2017-02-24T11:43:42.266Z,57536
2017-02-24T11:44:42.251Z,65120
2017-02-24T11:45:42.228Z,64480
2017-02-24T11:46:42.193Z,56800
2017-02-24T11:47:42.170Z,56128
2017-02-24T11:48:42.140Z,58304
2017-02-24T11:49:42.115Z,55008
2017-02-24T11:50:42.099Z,54976
2017-02-24T11:51:41.892Z,55168
2017-02-24T11:52:42.031Z,62368
2017-02-24T11:53:42.007Z,52512
2017-02-24T11:54:42.003Z,51712
2017-02-24T11:55:41.989Z,50912
2017-02-24T11:56:41.953Z,52192
2017-02-24T11:57:41.917Z,51264
2017-02-24T11:58:41.511Z,53536
2017-02-24T11:59:41.868Z,50912
2017-02-24T12:00:41.878Z,48736
2017-02-24T12:01:42.061Z,48288
2017-02-24T12:02:55.194Z,50176
2017-02-24T12:03:41.408Z,50368
2017-02-24T12:04:41.803Z,47904
2017-02-24T12:05:41.760Z,42752
2017-02-24T12:06:41.730Z,49248
2017-02-24T12:07:41.685Z,44512
2017-02-24T12:08:41.690Z,40352
2017-02-24T12:09:41.632Z,48672
2017-02-24T12:10:41.615Z,50720
2017-02-24T12:11:41.569Z,50048
2017-02-24T12:12:41.561Z,59808
2017-02-24T12:13:41.165Z,64480
2017-02-24T12:14:41.501Z,69472
2017-02-24T12:15:41.507Z,66624
2017-02-24T12:16:41.474Z,50528
2017-02-24T12:17:41.453Z,49760
2017-02-24T12:18:41.438Z,54272
2017-02-24T12:19:41.376Z,53536
2017-02-24T12:20:41.373Z,55424
2017-02-24T12:21:41.355Z,53856
2017-02-24T12:22:41.321Z,58912
2017-02-24T12:23:41.289Z,56384
2017-02-24T12:24:41.284Z,61024
2017-02-24T12:25:41.280Z,64576
2017-02-24T12:26:41.192Z,65344
2017-02-24T12:27:41.385Z,61120
2017-02-24T12:28:40.999Z,60960
2017-02-24T12:29:40.742Z,60960
2017-02-24T12:30:41.127Z,59808
2017-02-24T12:31:41.078Z,62912
2017-02-24T12:32:41.265Z,67968
2017-02-24T12:33:41.251Z,76544
2017-02-24T12:34:41.041Z,83808
2017-02-24T12:35:40.988Z,85952
2017-02-24T12:36:40.960Z,60480
2017-02-24T12:37:41.160Z,61376
2017-02-24T12:38:41.151Z,51584
2017-02-24T12:39:40.899Z,51744
2017-02-24T12:40:40.897Z,54304
2017-02-24T12:41:40.839Z,45312
2017-02-24T12:42:40.815Z,46848
2017-02-24T12:43:40.809Z,44480
2017-02-24T12:44:40.805Z,45408
2017-02-24T12:45:40.777Z,42848
2017-02-24T12:46:40.728Z,42720
2017-02-24T12:47:40.680Z,45920
2017-02-24T12:48:40.654Z,44864
2017-02-24T12:49:40.263Z,47968
2017-02-24T12:50:40.631Z,51936
2017-02-24T12:51:40.590Z,45888
2017-02-24T12:52:40.580Z,44384
2017-02-24T12:53:40.556Z,40672
2017-02-24T12:54:40.535Z,45984
2017-02-24T12:55:40.513Z,50848
2017-02-24T12:56:40.476Z,48672
2017-02-24T12:57:40.447Z,51552
2017-02-24T12:58:40.401Z,45408
2017-02-24T12:59:40.386Z,46912
2017-02-24T13:00:40.375Z,46656
2017-02-24T13:01:40.333Z,46560
2017-02-24T13:02:40.312Z,44192
2017-02-24T13:03:39.946Z,43008
2017-02-24T13:04:40.473Z,49408
2017-02-24T13:05:40.248Z,42368
2017-02-24T13:06:40.238Z,41696
2017-02-24T13:07:40.227Z,43104
2017-02-24T13:08:40.191Z,43072
2017-02-24T13:09:40.349Z,42112
2017-02-24T13:10:40.119Z,41024
2017-02-24T13:11:40.093Z,41600
2017-02-24T13:12:40.085Z,37376
2017-02-24T13:13:40.041Z,37376
2017-02-24T13:14:40.051Z,38080
2017-02-24T13:15:40.004Z,34080
2017-02-24T13:16:39.962Z,33536
2017-02-24T13:17:39.969Z,34496
2017-02-24T13:18:39.926Z,34304
2017-02-24T13:19:39.903Z,33856
2017-02-24T13:20:39.862Z,33856
2017-02-24T13:21:39.868Z,32832
2017-02-24T13:22:39.802Z,32384
2017-02-24T13:23:39.772Z,31360
2017-02-24T13:24:39.768Z,30720
2017-02-24T13:25:39.357Z,30336
2017-02-24T13:26:39.728Z,30432
2017-02-24T13:27:39.719Z,30656
2017-02-24T13:28:39.664Z,31040
2017-02-24T13:29:39.859Z,30752
2017-02-24T13:30:39.634Z,31008
2017-02-24T13:31:39.221Z,30400
2017-02-24T13:32:39.564Z,29856
2017-02-24T13:33:39.179Z,29856
2017-02-24T13:34:39.704Z,30080
2017-02-24T13:35:39.691Z,30048
2017-02-24T13:36:39.455Z,29952
2017-02-24T13:37:39.451Z,29440
2017-02-24T13:38:39.397Z,30144
2017-02-24T13:39:39.398Z,29824
2017-02-24T13:40:39.369Z,30016
2017-02-24T13:41:39.341Z,29088
2017-02-24T13:42:39.338Z,28832